createdAt,value
2019-04-05T00:00:43.436Z,17.27
2019-04-05T00:03:15.239Z,12.90
2019-04-05T00:05:46.142Z,19.43
2019-04-05T00:08:17.216Z,15.37
2019-04-05T00:10:48.242Z,14.23
2019-04-05T00:13:18.658Z,19.43
2019-04-05T00:15:49.288Z,12.67
2019-04-05T00:18:21.394Z,14.60
2019-04-05T00:20:56.015Z,15.50
2019-04-05T00:23:26.440Z,13.17
2019-04-05T00:25:57.635Z,18.40
2019-04-05T00:28:30.329Z,15.33
2019-04-05T00:31:00.832Z,14.87
2019-04-05T00:33:33.420Z,15.93
2019-04-05T00:36:06.419Z,14.17
2019-04-05T00:38:36.875Z,15.27
2019-04-05T00:41:09.347Z,18.20
2019-04-05T00:43:41.386Z,14.90
2019-04-05T00:46:12.478Z,16.80
2019-04-05T00:48:45.475Z,14.83
2019-04-05T00:51:19.952Z,18.67
2019-04-05T00:53:51.511Z,16.27
2019-04-05T00:56:24.375Z,13.60
2019-04-05T00:58:58.397Z,14.90
2019-04-05T01:01:30.364Z,15.17
2019-04-05T01:04:03.467Z,19.30
2019-04-05T01:06:36.303Z,12.73
2019-04-05T01:09:08.172Z,15.83
2019-04-05T01:11:39.568Z,14.80
2019-04-05T01:14:12.646Z,13.43
2019-04-05T01:16:45.619Z,14.93
2019-04-05T01:19:16.515Z,17.07
2019-04-05T01:21:49.649Z,20.73
2019-04-05T01:24:22.592Z,15.23
2019-04-05T01:26:56.138Z,18.43
2019-04-05T01:29:27.640Z,17.10
2019-04-05T01:31:58.509Z,16.43
2019-04-05T01:34:31.537Z,18.47
2019-04-05T01:37:02.586Z,17.33
2019-04-05T01:39:33.700Z,20.17
2019-04-05T01:42:04.722Z,14.50
2019-04-05T01:44:37.065Z,23.00
2019-04-05T01:47:09.567Z,17.43
2019-04-05T01:49:41.870Z,17.07
2019-04-05T01:52:13.616Z,14.17
2019-04-05T01:54:45.591Z,17.17
2019-04-05T01:57:18.764Z,15.73
2019-04-05T01:59:51.785Z,17.00
2019-04-05T02:02:24.773Z,15.40
2019-04-05T02:04:57.749Z,19.20
2019-04-05T02:07:30.805Z,19.23
2019-04-05T02:10:02.043Z,20.73
2019-04-05T02:12:33.842Z,19.60
2019-04-05T02:15:07.534Z,16.33
2019-04-05T02:17:41.339Z,18.23
2019-04-05T02:20:13.128Z,18.63
2019-04-05T02:22:45.783Z,21.83
2019-04-05T02:25:18.835Z,16.60
2019-04-05T02:27:50.891Z,20.80
2019-04-05T02:30:21.994Z,19.90
2019-04-05T02:32:54.897Z,16.90
2019-04-05T02:35:27.881Z,17.70
2019-04-05T02:38:01.079Z,19.60
2019-04-05T02:40:35.535Z,18.63
2019-04-05T02:43:08.414Z,22.93
2019-04-05T02:45:40.732Z,21.53
2019-04-05T02:48:14.388Z,19.13
2019-04-05T02:50:48.558Z,20.97
2019-04-05T02:53:20.440Z,19.60
2019-04-05T02:55:52.215Z,17.83
2019-04-05T02:58:23.136Z,16.87
2019-04-05T03:00:55.191Z,19.27
2019-04-05T03:03:26.123Z,17.40
2019-04-05T03:05:58.184Z,17.80
2019-04-05T03:08:31.101Z,21.30
2019-04-05T03:11:09.165Z,22.30
2019-04-05T03:13:45.118Z,18.30
2019-04-05T03:16:19.415Z,16.63
2019-04-05T03:18:55.754Z,16.97
2019-04-05T03:21:29.633Z,15.67
2019-04-05T03:24:04.230Z,15.83
2019-04-05T03:26:39.450Z,18.97
2019-04-05T03:29:10.992Z,17.97
2019-04-05T03:31:43.195Z,18.27
2019-04-05T03:34:17.433Z,15.70
2019-04-05T03:36:51.619Z,16.20
2019-04-05T03:39:21.230Z,15.50
2019-04-05T03:41:52.793Z,17.93
2019-04-05T03:44:25.055Z,17.03
2019-04-05T03:46:58.026Z,18.20
2019-04-05T03:49:31.375Z,16.97
2019-04-05T03:52:05.311Z,18.40
2019-04-05T03:54:37.095Z,18.77
2019-04-05T03:57:10.453Z,19.17
2019-04-05T03:59:43.291Z,15.30
2019-04-05T04:02:16.672Z,17.30
2019-04-05T04:04:50.923Z,19.20
2019-04-05T04:07:22.405Z,19.87
2019-04-05T04:09:55.257Z,15.70
2019-04-05T04:12:28.510Z,21.37
2019-04-05T04:15:13.953Z,16.30
2019-04-05T04:17:48.342Z,17.53
2019-04-05T04:20:36.708Z,20.70
2019-04-05T04:23:08.566Z,17.70
2019-04-05T04:25:40.861Z,17.67
2019-04-05T04:28:13.338Z,18.63
2019-04-05T04:30:46.484Z,15.87
2019-04-05T04:33:21.141Z,16.90
2019-04-05T04:35:53.919Z,17.53
2019-04-05T04:38:27.223Z,22.60
2019-04-05T04:41:00.610Z,22.07
2019-04-05T04:43:31.453Z,24.73
2019-04-05T04:46:04.535Z,21.30
2019-04-05T04:48:36.861Z,20.60
2019-04-05T04:51:09.407Z,19.57
2019-04-05T04:53:40.765Z,20.73
2019-04-05T04:56:13.430Z,18.13
2019-04-05T04:58:46.708Z,19.03
2019-04-05T05:01:20.331Z,20.60
2019-04-05T05:03:51.700Z,19.13
2019-04-05T05:06:23.485Z,24.83
2019-04-05T05:08:55.591Z,26.43
2019-04-05T05:11:28.590Z,21.83
2019-04-05T05:13:59.550Z,21.40
2019-04-05T05:16:32.692Z,25.97
2019-04-05T05:19:03.673Z,19.77
2019-04-05T05:21:34.706Z,25.23
2019-04-05T05:24:06.128Z,27.10
2019-04-05T05:26:36.796Z,18.83
2019-04-05T05:29:09.900Z,26.73
2019-04-05T05:31:42.863Z,24.90
2019-04-05T05:34:17.594Z,31.60
2019-04-05T05:36:48.898Z,18.83
2019-04-05T05:39:20.371Z,25.37
2019-04-05T05:41:51.747Z,23.93
2019-04-05T05:44:24.644Z,23.13
2019-04-05T05:46:57.829Z,21.53
2019-04-05T05:49:30.741Z,24.13
2019-04-05T05:52:04.417Z,22.73
2019-04-05T05:54:34.805Z,24.93
2019-04-05T05:57:06.692Z,30.63
2019-04-05T05:59:37.124Z,28.97
2019-04-05T06:02:09.909Z,26.03
2019-04-05T06:04:42.946Z,21.47
2019-04-05T06:07:14.894Z,22.30
2019-04-05T06:09:47.817Z,20.23
2019-04-05T06:12:19.822Z,24.47
2019-04-05T06:14:51.904Z,22.90
2019-04-05T06:17:22.976Z,25.43
2019-04-05T06:19:55.839Z,25.17
2019-04-05T06:22:26.229Z,28.83
2019-04-05T06:24:57.985Z,20.20
2019-04-05T06:27:28.830Z,19.47
2019-04-05T06:30:00.990Z,21.50
2019-04-05T06:32:33.281Z,19.37
2019-04-05T06:35:03.941Z,20.40
2019-04-05T06:37:35.044Z,24.80
2019-04-05T06:40:07.127Z,19.00
2019-04-05T06:42:37.518Z,21.02
2019-04-05T06:45:10.053Z,25.80
2019-04-05T06:47:43.169Z,22.47
2019-04-05T06:50:14.427Z,25.93
2019-04-05T06:52:46.135Z,22.60
2019-04-05T06:55:16.940Z,20.63
2019-04-05T06:57:49.154Z,22.53
2019-04-05T07:00:28.373Z,18.80
2019-04-05T07:03:01.137Z,20.43
2019-04-05T07:05:32.156Z,20.90
2019-04-05T07:08:04.072Z,27.30
2019-04-05T07:10:35.235Z,21.83
2019-04-05T07:13:07.349Z,21.63
2019-04-05T07:15:37.699Z,25.43
2019-04-05T07:18:08.172Z,22.73
2019-04-05T07:20:40.142Z,22.37
2019-04-05T07:23:13.292Z,28.80
2019-04-05T07:25:46.120Z,22.83
2019-04-05T07:28:17.189Z,22.50
2019-04-05T07:30:49.113Z,21.97
2019-04-05T07:33:20.221Z,20.43
2019-04-05T07:35:50.582Z,19.97
2019-04-05T07:38:22.326Z,20.80
2019-04-05T07:40:55.260Z,21.70
2019-04-05T07:43:26.187Z,21.60
2019-04-05T07:45:58.250Z,22.50
2019-04-05T07:48:43.746Z,22.37
2019-04-05T07:51:06.342Z,18.00
2019-04-05T07:53:36.924Z,24.17
2019-04-05T07:56:07.371Z,23.63
2019-04-05T07:58:39.404Z,21.47
2019-04-05T08:01:11.813Z,20.87
2019-04-05T08:03:43.582Z,25.23
2019-04-05T08:06:16.924Z,25.50
2019-04-05T08:09:08.047Z,23.60
2019-04-05T08:11:43.336Z,22.83
2019-04-05T08:14:18.199Z,27.23
2019-04-05T08:16:49.518Z,20.20
2019-04-05T08:19:21.322Z,22.20
2019-04-05T08:21:52.428Z,24.73
2019-04-05T08:24:23.525Z,16.80
2019-04-05T08:26:55.548Z,21.03
2019-04-05T08:29:28.535Z,21.70
2019-04-05T08:32:13.642Z,19.37
2019-04-05T08:34:33.536Z,24.73
2019-04-05T08:37:04.552Z,19.00
2019-04-05T08:39:36.940Z,16.97
2019-04-05T08:42:10.829Z,17.07
2019-04-05T08:44:43.532Z,18.43
2019-04-05T08:47:15.498Z,22.93
2019-04-05T08:49:46.571Z,25.17
2019-04-05T08:52:19.512Z,31.07
2019-04-05T08:54:50.815Z,17.77
2019-04-05T08:57:22.648Z,28.43
2019-04-05T08:59:53.725Z,20.83
2019-04-05T09:02:25.656Z,17.53
2019-04-05T09:04:58.634Z,27.47
2019-04-05T09:07:31.937Z,20.47
2019-04-05T09:10:04.696Z,22.00
2019-04-05T09:12:36.959Z,21.37
2019-04-05T09:15:07.708Z,23.00
2019-04-05T09:17:40.727Z,20.73
2019-04-05T09:20:13.798Z,15.23
2019-04-05T09:22:45.949Z,18.83
2019-04-05T09:25:19.622Z,18.30
2019-04-05T09:27:49.808Z,18.93
2019-04-05T09:30:23.398Z,16.90
2019-04-05T09:32:55.770Z,30.23
2019-04-05T09:35:26.679Z,18.23
2019-04-05T09:37:57.804Z,18.67
2019-04-05T09:40:30.831Z,17.73
2019-04-05T09:43:02.766Z,22.53
2019-04-05T09:45:33.808Z,24.23
2019-04-05T09:48:05.998Z,19.80
2019-04-05T09:50:36.978Z,22.00
2019-04-05T09:53:08.924Z,23.53
2019-04-05T09:55:40.861Z,14.17
2019-04-05T09:58:14.011Z,24.03
2019-04-05T10:00:44.896Z,16.03
2019-04-05T10:03:17.163Z,14.73
2019-04-05T10:05:50.041Z,21.43
2019-04-05T10:08:21.930Z,16.30
2019-04-05T10:10:53.990Z,29.53
2019-04-05T10:13:24.973Z,16.30
2019-04-05T10:15:55.982Z,18.10
2019-04-05T10:18:28.145Z,14.10
2019-04-05T10:20:58.906Z,17.80
2019-04-05T10:23:30.219Z,18.00
2019-04-05T10:26:01.098Z,23.27
2019-04-05T10:28:33.957Z,26.83
2019-04-05T10:31:06.237Z,17.00
2019-04-05T10:33:36.996Z,22.50
2019-04-05T10:36:10.801Z,15.90
2019-04-05T10:38:44.751Z,21.67
2019-04-05T10:41:16.099Z,16.30
2019-04-05T10:43:49.094Z,19.07
2019-04-05T10:46:22.091Z,22.70
2019-04-05T10:48:55.054Z,18.50
2019-04-05T10:51:26.137Z,19.00
2019-04-05T10:53:58.155Z,17.63
2019-04-05T10:56:32.827Z,22.07
2019-04-05T10:59:05.277Z,18.23
2019-04-05T11:01:37.108Z,15.60
2019-04-05T11:04:08.125Z,23.47
2019-04-05T11:06:40.187Z,18.33
2019-04-05T11:09:13.299Z,15.30
2019-04-05T11:11:46.214Z,18.23
2019-04-05T11:14:19.146Z,15.93
2019-04-05T11:16:58.308Z,16.47
2019-04-05T11:19:25.283Z,17.50
2019-04-05T11:21:59.963Z,21.93
2019-04-05T11:24:31.167Z,18.63
2019-04-05T11:27:06.707Z,15.50
2019-04-05T11:29:37.055Z,14.63
2019-04-05T11:32:07.463Z,11.13
2019-04-05T11:34:37.822Z,15.30
2019-04-05T11:37:10.518Z,11.47
2019-04-05T11:39:43.230Z,17.50
2019-04-05T11:42:17.149Z,12.80
2019-04-05T11:44:51.638Z,16.57
2019-04-05T11:47:25.572Z,19.27
2019-04-05T11:49:58.884Z,15.03
2019-04-05T11:52:29.368Z,18.47
2019-04-05T11:55:04.478Z,13.00
2019-04-05T11:57:34.476Z,24.27
2019-04-05T12:00:12.794Z,15.90
2019-04-05T12:02:49.875Z,13.47
2019-04-05T12:05:22.555Z,18.93
2019-04-05T12:08:00.592Z,12.87
2019-04-05T12:10:32.105Z,15.10
2019-04-05T12:13:04.491Z,18.97
2019-04-05T12:15:36.525Z,13.03
2019-04-05T12:18:09.948Z,9.83
2019-04-05T12:20:49.107Z,15.43
2019-04-05T12:23:14.486Z,15.03
2019-04-05T12:25:47.449Z,12.10
2019-04-05T12:28:19.608Z,11.47
2019-04-05T12:30:51.528Z,14.67
2019-04-05T12:33:22.579Z,14.20
2019-04-05T12:35:56.665Z,8.80
2019-04-05T12:38:33.303Z,14.47
2019-04-05T12:41:05.418Z,14.03
2019-04-05T12:43:37.969Z,14.50
2019-04-05T12:46:15.115Z,19.10
2019-04-05T12:48:46.390Z,9.33
2019-04-05T12:51:16.650Z,15.13
2019-04-05T12:53:51.365Z,13.07
2019-04-05T12:56:24.400Z,17.03
2019-04-05T12:58:56.608Z,10.37
2019-04-05T13:01:28.562Z,14.90
2019-04-05T13:04:01.672Z,13.83
2019-04-05T13:06:34.774Z,15.30
2019-04-05T13:09:08.875Z,17.67
2019-04-05T13:11:40.722Z,17.27
2019-04-05T13:14:11.269Z,16.10
2019-04-05T13:16:43.624Z,16.30
2019-04-05T13:19:14.686Z,24.47
2019-04-05T13:21:46.743Z,16.50
2019-04-05T13:24:17.786Z,23.20
2019-04-05T13:26:49.811Z,15.00
2019-04-05T13:29:22.981Z,9.67
2019-04-05T13:31:53.761Z,22.10
2019-04-05T13:34:26.590Z,13.70
2019-04-05T13:36:59.290Z,14.10
2019-04-05T13:39:31.854Z,19.73
2019-04-05T13:42:05.155Z,14.23
2019-04-05T13:44:35.995Z,11.13
2019-04-05T13:47:08.471Z,12.83
2019-04-05T13:49:41.464Z,16.93
2019-04-05T13:52:13.972Z,16.90
2019-04-05T13:54:46.984Z,12.80
2019-04-05T13:57:17.806Z,13.37
2019-04-05T13:59:49.996Z,20.30
2019-04-05T14:02:22.021Z,17.63
2019-04-05T14:04:54.491Z,23.73
2019-04-05T14:07:25.352Z,24.30
2019-04-05T14:09:55.990Z,15.50
2019-04-05T14:12:26.941Z,20.60
2019-04-05T14:14:59.038Z,19.63
2019-04-05T14:17:30.033Z,17.90
2019-04-05T14:20:03.811Z,16.33
2019-04-05T14:22:34.974Z,17.43
2019-04-05T14:25:06.137Z,27.07
2019-04-05T14:27:37.300Z,15.73
2019-04-05T14:30:10.243Z,21.90
2019-04-05T14:32:41.131Z,22.07
2019-04-05T14:35:12.520Z,16.50
2019-04-05T14:37:44.177Z,20.03
2019-04-05T14:40:15.320Z,23.83
2019-04-05T14:42:47.110Z,16.20
2019-04-05T14:45:19.282Z,26.03
2019-04-05T14:47:50.132Z,17.77
2019-04-05T14:50:25.058Z,15.10
2019-04-05T14:52:56.212Z,23.10
2019-04-05T14:55:29.959Z,22.93
2019-04-05T14:58:06.022Z,21.33
2019-04-05T15:00:37.386Z,19.93
2019-04-05T15:03:08.228Z,20.33
2019-04-05T15:05:41.180Z,17.77
2019-04-05T15:08:14.364Z,27.43
2019-04-05T15:10:44.835Z,17.40
2019-04-05T15:13:19.106Z,19.50
2019-04-05T15:15:55.871Z,19.17
2019-04-05T15:18:28.328Z,19.80
2019-04-05T15:20:58.785Z,21.47
2019-04-05T15:23:31.325Z,27.73
2019-04-05T15:26:02.465Z,22.37
2019-04-05T15:28:35.327Z,24.27
2019-04-05T15:31:06.352Z,23.27
2019-04-05T15:33:37.316Z,22.60
2019-04-05T15:36:10.494Z,33.60
2019-04-05T15:38:43.607Z,18.77
2019-04-05T15:41:15.444Z,25.40
2019-04-05T15:43:46.348Z,34.70
2019-04-05T15:46:16.779Z,24.50
2019-04-05T15:48:49.658Z,24.30
2019-04-05T15:51:24.878Z,25.07
2019-04-05T15:53:55.536Z,27.50
2019-04-05T15:56:26.475Z,23.63
2019-04-05T15:58:58.528Z,22.60
2019-04-05T16:01:29.475Z,26.03
2019-04-05T16:04:02.744Z,23.67
2019-04-05T16:06:35.533Z,24.50
2019-04-05T16:09:09.153Z,25.03
2019-04-05T16:11:42.226Z,21.53
2019-04-05T16:14:13.561Z,25.47
2019-04-05T16:16:46.558Z,24.43
2019-04-05T16:19:19.652Z,30.87
2019-04-05T16:21:52.651Z,21.30
2019-04-05T16:24:23.283Z,26.23
2019-04-05T16:26:55.581Z,22.03
2019-04-05T16:29:28.605Z,25.43
2019-04-05T16:31:59.674Z,26.47
2019-04-05T16:34:31.612Z,22.13
2019-04-05T16:37:04.846Z,31.23
2019-04-05T16:39:35.884Z,25.10
2019-04-05T16:42:10.129Z,30.77
2019-04-05T16:44:40.904Z,32.03
2019-04-05T16:47:13.786Z,29.83
2019-04-05T16:49:46.749Z,30.93
2019-04-05T16:52:17.816Z,20.87
2019-04-05T16:54:50.703Z,24.77
2019-04-05T16:57:23.132Z,30.60
2019-04-05T16:59:55.945Z,29.13
2019-04-05T17:02:26.775Z,23.03
2019-04-05T17:04:58.271Z,22.00
2019-04-05T17:07:29.833Z,21.67
2019-04-05T17:10:02.884Z,22.63
2019-04-05T17:12:35.717Z,24.33
2019-04-05T17:15:08.195Z,32.30
2019-04-05T17:17:40.753Z,28.33
2019-04-05T17:20:13.924Z,25.50
2019-04-05T17:22:57.439Z,27.50
2019-04-05T17:25:33.396Z,24.97
2019-04-05T17:28:03.797Z,24.47
2019-04-05T17:30:36.545Z,25.47
2019-04-05T17:33:07.370Z,33.97
2019-04-05T17:35:39.746Z,28.93
2019-04-05T17:38:12.948Z,39.23
2019-04-05T17:40:43.492Z,30.33
2019-04-05T17:43:15.422Z,29.03
2019-04-05T17:45:48.355Z,30.00
2019-04-05T17:48:19.773Z,32.60
2019-04-05T17:50:50.850Z,29.97
2019-04-05T17:53:22.478Z,28.07
2019-04-05T17:55:53.079Z,31.07
2019-04-05T17:58:25.477Z,27.20
2019-04-05T18:00:58.505Z,29.73
2019-04-05T18:03:29.925Z,32.00
2019-04-05T18:06:01.843Z,30.87
2019-04-05T18:08:33.416Z,29.07
2019-04-05T18:11:05.618Z,32.10
2019-04-05T18:13:37.475Z,29.73
2019-04-05T18:16:08.718Z,34.13
2019-04-05T18:18:39.562Z,28.67
2019-04-05T18:21:10.826Z,32.60
2019-04-05T18:23:42.720Z,30.73
2019-04-05T18:26:13.611Z,35.23
2019-04-05T18:28:44.440Z,32.17
2019-04-05T18:31:17.645Z,35.50
2019-04-05T18:33:48.301Z,32.70
2019-04-05T18:36:18.913Z,31.53
2019-04-05T18:38:49.600Z,31.30
2019-04-05T18:41:20.160Z,35.53
2019-04-05T18:43:50.616Z,36.77
2019-04-05T18:46:21.200Z,45.83
2019-04-05T18:48:51.662Z,38.00
2019-04-05T18:51:22.075Z,30.73
2019-04-05T18:53:52.731Z,35.30
2019-04-05T18:56:23.516Z,31.87
2019-04-05T18:58:53.898Z,32.70
2019-04-05T19:01:24.559Z,34.00
2019-04-05T19:03:55.025Z,32.57
2019-04-05T19:06:25.684Z,34.80
2019-04-05T19:08:56.452Z,30.23
2019-04-05T19:11:28.492Z,33.87
2019-04-05T19:14:01.341Z,34.37
2019-04-05T19:16:33.931Z,29.30
2019-04-05T19:19:06.813Z,27.93
2019-04-05T19:21:38.181Z,28.43
2019-04-05T19:24:10.878Z,30.67
2019-04-05T19:26:41.953Z,30.10
2019-04-05T19:29:13.925Z,31.30
2019-04-05T19:49:38.074Z,34.73
2019-04-05T19:52:10.998Z,35.20
2019-04-05T19:54:41.931Z,37.70
2019-04-05T19:57:15.120Z,33.53
2019-04-05T19:59:45.595Z,34.77
2019-04-05T20:02:16.326Z,34.80
2019-04-05T20:04:48.057Z,33.67
2019-04-05T20:07:20.137Z,33.00
2019-04-05T20:09:51.014Z,36.07
2019-04-05T20:12:22.414Z,36.43
2019-04-05T20:14:54.124Z,32.83
2019-04-05T20:17:26.125Z,36.30
2019-04-05T20:19:56.808Z,35.30
2019-04-05T20:22:27.242Z,33.03
2019-04-05T20:24:57.714Z,32.60
2019-04-05T20:27:28.195Z,34.63
2019-04-05T20:29:58.974Z,30.80
2019-04-05T20:32:29.392Z,35.37
2019-04-05T20:35:00.004Z,34.90
2019-04-05T20:37:30.670Z,38.70
2019-04-05T20:40:01.265Z,39.07
2019-04-05T20:42:31.695Z,45.83
2019-04-05T20:45:03.265Z,39.10
2019-04-05T20:47:35.038Z,34.40
2019-04-05T20:50:06.852Z,39.03
2019-04-05T20:52:38.179Z,43.07
2019-04-05T20:55:11.260Z,38.07
2019-04-05T20:57:43.497Z,37.60
2019-04-05T21:00:17.347Z,41.93
2019-04-05T21:02:48.343Z,37.60
2019-04-05T21:05:25.311Z,42.53
2019-04-05T21:07:53.039Z,43.10
2019-04-05T21:10:24.066Z,45.60
2019-04-05T21:12:55.372Z,38.67
2019-04-05T21:15:27.239Z,40.33
2019-04-05T21:17:58.015Z,41.33
2019-04-05T21:20:29.335Z,41.83
2019-04-05T21:22:59.861Z,44.10
2019-04-05T21:25:31.420Z,48.97
2019-04-05T21:28:02.426Z,48.53
2019-04-05T21:30:35.488Z,55.30
2019-04-05T21:33:08.791Z,45.67
2019-04-05T21:35:39.459Z,45.07
2019-04-05T21:38:10.396Z,48.50
2019-04-05T21:40:41.819Z,49.93
2019-04-05T21:43:14.487Z,45.00
2019-04-05T21:45:44.939Z,46.60
2019-04-05T21:48:16.271Z,48.00
2019-04-05T21:50:48.322Z,50.43
2019-04-05T21:53:19.663Z,53.37
2019-04-05T21:55:50.539Z,51.37
2019-04-05T21:58:23.201Z,64.23
2019-04-05T22:01:01.460Z,54.00
2019-04-05T22:03:34.501Z,49.60
2019-04-05T22:06:05.405Z,54.17
2019-04-05T22:08:35.991Z,52.90
2019-04-05T22:11:06.427Z,53.83
2019-04-05T22:13:36.794Z,54.43
2019-04-05T22:16:07.273Z,48.13
2019-04-05T22:18:37.720Z,52.43
2019-04-05T22:21:08.463Z,58.57
2019-04-05T22:23:39.062Z,50.57
2019-04-05T22:26:09.559Z,56.90
2019-04-05T22:28:40.304Z,54.40
2019-04-05T22:31:10.709Z,54.87
2019-04-05T22:33:41.098Z,50.80
2019-04-05T22:36:11.626Z,52.37
2019-04-05T22:38:43.881Z,52.80
2019-04-05T22:41:15.647Z,65.60
2019-04-05T22:43:50.648Z,67.43
2019-04-05T22:46:22.770Z,57.37
2019-04-05T22:48:54.840Z,60.47
2019-04-05T22:51:25.848Z,70.40
2019-04-05T22:53:58.026Z,64.83
2019-04-05T22:56:30.962Z,66.17
2019-04-05T22:59:01.828Z,57.30
2019-04-05T23:01:32.468Z,65.63
2019-04-05T23:04:03.146Z,56.73
2019-04-05T23:06:33.762Z,54.67
2019-04-05T23:09:06.616Z,55.03
2019-04-05T23:11:37.939Z,61.73
2019-04-05T23:14:11.340Z,53.30
2019-04-05T23:16:41.795Z,52.13
2019-04-05T23:19:13.173Z,42.60
2019-04-05T23:21:45.065Z,37.50
2019-04-05T23:24:16.974Z,28.63
2019-04-05T23:26:48.921Z,22.53
2019-04-05T23:29:19.889Z,21.30
2019-04-05T23:31:52.032Z,22.33
2019-04-05T23:34:23.997Z,16.23
2019-04-05T23:36:54.982Z,11.67
2019-04-05T23:39:26.113Z,10.07
2019-04-05T23:41:56.806Z,7.57
2019-04-05T23:44:27.506Z,6.50
2019-04-05T23:46:59.661Z,7.93
2019-04-05T23:49:32.760Z,7.43
2019-04-05T23:52:04.984Z,8.97
2019-04-05T23:54:36.002Z,9.70
2019-04-05T23:57:09.162Z,10.63
2019-04-05T23:59:41.531Z,10.40
